Terminal Aerodrome Forecast
Issued by NWS Cleveland, OH

Home | Current Version | Previous Version | Text Only | Print | Product List | Glossary Off
Versions: 1 2 3 4 5 6 7 8 9 10 11 12 13 14 15 16 17 18 19 20 21 22 23 24 25 26 27 28 29

880
FTUS41 KCLE 212159 AAB
TAFCLE
TAF AMD
KCLE 212159Z 2122/2224 22010KT P6SM VCSH SCT060 BKN100
     FM212300 20008KT P6SM SCT060
     FM220900 20009KT P6SM BKN070
     FM221700 23016G24KT P6SM VCTS BKN050CB
     FM222200 26014G22KT P6SM BKN035=

USA.gov is the U.S. government's official web portal to all federal, state and local government web resources and services.